sensor_id;sensor_type;location;lat;lon;timestamp;temperature;humidity
51215;DHT22;63849;47.546;19.254;2023-10-08T00:01:15;17.10;51.20
51215;DHT22;63849;47.546;19.254;2023-10-08T00:03:48;17.10;50.80
51215;DHT22;63849;47.546;19.254;2023-10-08T00:06:19;17.20;50.10
51215;DHT22;63849;47.546;19.254;2023-10-08T00:08:47;17.30;50.20
51215;DHT22;63849;47.546;19.254;2023-10-08T00:11:14;17.30;49.90
51215;DHT22;63849;47.546;19.254;2023-10-08T00:13:42;17.40;49.60
51215;DHT22;63849;47.546;19.254;2023-10-08T00:16:10;17.40;49.40
51215;DHT22;63849;47.546;19.254;2023-10-08T00:18:37;17.40;49.20
51215;DHT22;63849;47.546;19.254;2023-10-08T00:21:06;17.50;49.20
51215;DHT22;63849;47.546;19.254;2023-10-08T00:23:38;17.40;49.20
51215;DHT22;63849;47.546;19.254;2023-10-08T00:26:10;17.40;49.40
51215;DHT22;63849;47.546;19.254;2023-10-08T00:28:36;17.50;49.10
51215;DHT22;63849;47.546;19.254;2023-10-08T00:31:02;17.50;49.10
51215;DHT22;63849;47.546;19.254;2023-10-08T00:33:37;17.50;48.80
51215;DHT22;63849;47.546;19.254;2023-10-08T00:36:03;17.60;48.40
51215;DHT22;63849;47.546;19.254;2023-10-08T00:38:46;17.50;48.50
51215;DHT22;63849;47.546;19.254;2023-10-08T00:41:15;17.50;48.20
51215;DHT22;63849;47.546;19.254;2023-10-08T00:43:41;17.50;48.40
51215;DHT22;63849;47.546;19.254;2023-10-08T00:46:08;17.50;48.60
51215;DHT22;63849;47.546;19.254;2023-10-08T00:48:52;17.60;48.50
51215;DHT22;63849;47.546;19.254;2023-10-08T00:51:22;17.70;48.10
51215;DHT22;63849;47.546;19.254;2023-10-08T00:54:04;17.70;48.30
51215;DHT22;63849;47.546;19.254;2023-10-08T00:56:34;17.70;48.30
51215;DHT22;63849;47.546;19.254;2023-10-08T00:59:22;17.70;48.80
51215;DHT22;63849;47.546;19.254;2023-10-08T01:01:50;17.60;48.70
51215;DHT22;63849;47.546;19.254;2023-10-08T01:04:29;17.60;49.00
51215;DHT22;63849;47.546;19.254;2023-10-08T01:07:00;17.50;48.70
51215;DHT22;63849;47.546;19.254;2023-10-08T01:09:38;17.50;48.90
51215;DHT22;63849;47.546;19.254;2023-10-08T01:14:43;17.40;49.30
51215;DHT22;63849;47.546;19.254;2023-10-08T01:17:13;17.40;49.10
51215;DHT22;63849;47.546;19.254;2023-10-08T01:19:40;17.40;49.50
51215;DHT22;63849;47.546;19.254;2023-10-08T01:22:07;17.40;49.60
51215;DHT22;63849;47.546;19.254;2023-10-08T01:24:38;17.30;49.70
51215;DHT22;63849;47.546;19.254;2023-10-08T01:27:04;17.30;50.20
51215;DHT22;63849;47.546;19.254;2023-10-08T01:29:30;17.20;50.30
51215;DHT22;63849;47.546;19.254;2023-10-08T01:31:57;17.10;50.30
51215;DHT22;63849;47.546;19.254;2023-10-08T01:34:23;17.10;50.60
51215;DHT22;63849;47.546;19.254;2023-10-08T01:37:01;17.00;50.80
51215;DHT22;63849;47.546;19.254;2023-10-08T01:39:36;17.10;50.60
51215;DHT22;63849;47.546;19.254;2023-10-08T01:42:03;17.10;50.70
51215;DHT22;63849;47.546;19.254;2023-10-08T01:44:31;17.20;50.70
51215;DHT22;63849;47.546;19.254;2023-10-08T01:46:59;17.20;51.00
51215;DHT22;63849;47.546;19.254;2023-10-08T01:49:24;17.10;50.80
51215;DHT22;63849;47.546;19.254;2023-10-08T01:51:57;17.00;51.20
51215;DHT22;63849;47.546;19.254;2023-10-08T01:54:24;16.90;51.20
51215;DHT22;63849;47.546;19.254;2023-10-08T01:56:51;16.90;51.50
51215;DHT22;63849;47.546;19.254;2023-10-08T01:59:17;16.80;51.90
51215;DHT22;63849;47.546;19.254;2023-10-08T02:01:43;16.80;52.20
51215;DHT22;63849;47.546;19.254;2023-10-08T02:04:10;16.70;52.50
51215;DHT22;63849;47.546;19.254;2023-10-08T02:06:41;16.70;52.60
51215;DHT22;63849;47.546;19.254;2023-10-08T02:09:07;16.70;52.50
51215;DHT22;63849;47.546;19.254;2023-10-08T02:11:47;16.70;52.70
51215;DHT22;63849;47.546;19.254;2023-10-08T02:14:20;16.70;52.70
51215;DHT22;63849;47.546;19.254;2023-10-08T02:16:46;16.70;52.80
51215;DHT22;63849;47.546;19.254;2023-10-08T02:19:13;16.60;52.80
51215;DHT22;63849;47.546;19.254;2023-10-08T02:21:39;16.70;52.70
51215;DHT22;63849;47.546;19.254;2023-10-08T02:24:08;16.70;52.90
51215;DHT22;63849;47.546;19.254;2023-10-08T02:26:36;16.70;53.10
51215;DHT22;63849;47.546;19.254;2023-10-08T02:29:03;16.70;53.10
51215;DHT22;63849;47.546;19.254;2023-10-08T02:31:37;16.70;53.20
51215;DHT22;63849;47.546;19.254;2023-10-08T02:34:07;16.70;53.30
51215;DHT22;63849;47.546;19.254;2023-10-08T02:36:37;16.80;53.10
51215;DHT22;63849;47.546;19.254;2023-10-08T02:39:04;16.80;53.20
51215;DHT22;63849;47.546;19.254;2023-10-08T02:41:39;16.80;53.30
51215;DHT22;63849;47.546;19.254;2023-10-08T02:44:08;16.80;53.50
51215;DHT22;63849;47.546;19.254;2023-10-08T02:46:42;16.80;53.40
51215;DHT22;63849;47.546;19.254;2023-10-08T02:49:10;16.80;53.70
51215;DHT22;63849;47.546;19.254;2023-10-08T02:51:40;16.80;53.90
51215;DHT22;63849;47.546;19.254;2023-10-08T02:54:09;16.80;53.80
51215;DHT22;63849;47.546;19.254;2023-10-08T02:56:49;16.90;54.00
51215;DHT22;63849;47.546;19.254;2023-10-08T02:59:20;16.90;54.10
51215;DHT22;63849;47.546;19.254;2023-10-08T03:01:49;16.90;53.80
51215;DHT22;63849;47.546;19.254;2023-10-08T03:04:15;16.90;54.00
51215;DHT22;63849;47.546;19.254;2023-10-08T03:06:48;16.90;54.10
51215;DHT22;63849;47.546;19.254;2023-10-08T03:09:16;16.90;54.20
51215;DHT22;63849;47.546;19.254;2023-10-08T03:11:47;16.90;54.60
51215;DHT22;63849;47.546;19.254;2023-10-08T03:14:17;16.90;54.50
51215;DHT22;63849;47.546;19.254;2023-10-08T03:16:52;16.90;54.60
51215;DHT22;63849;47.546;19.254;2023-10-08T03:19:21;17.00;54.60
51215;DHT22;63849;47.546;19.254;2023-10-08T03:21:48;17.10;54.10
51215;DHT22;63849;47.546;19.254;2023-10-08T03:24:21;17.10;54.40
51215;DHT22;63849;47.546;19.254;2023-10-08T03:27:03;17.00;54.20
51215;DHT22;63849;47.546;19.254;2023-10-08T03:29:48;17.00;54.60
51215;DHT22;63849;47.546;19.254;2023-10-08T03:32:14;17.10;54.50
51215;DHT22;63849;47.546;19.254;2023-10-08T03:34:50;17.00;54.60
51215;DHT22;63849;47.546;19.254;2023-10-08T03:37:21;17.00;54.70
51215;DHT22;63849;47.546;19.254;2023-10-08T03:39:50;16.90;54.70
51215;DHT22;63849;47.546;19.254;2023-10-08T03:42:23;16.90;54.80
51215;DHT22;63849;47.546;19.254;2023-10-08T03:44:53;16.90;55.00
51215;DHT22;63849;47.546;19.254;2023-10-08T03:47:22;16.90;55.00
51215;DHT22;63849;47.546;19.254;2023-10-08T03:49:52;16.90;55.10
51215;DHT22;63849;47.546;19.254;2023-10-08T03:52:20;16.90;55.30
51215;DHT22;63849;47.546;19.254;2023-10-08T03:54:49;16.90;55.00
51215;DHT22;63849;47.546;19.254;2023-10-08T03:57:29;16.80;55.10
51215;DHT22;63849;47.546;19.254;2023-10-08T04:00:08;16.80;55.10
51215;DHT22;63849;47.546;19.254;2023-10-08T04:02:38;16.80;55.10
51215;DHT22;63849;47.546;19.254;2023-10-08T04:05:12;16.80;55.00
51215;DHT22;63849;47.546;19.254;2023-10-08T04:07:48;16.90;54.60
51215;DHT22;63849;47.546;19.254;2023-10-08T04:10:50;16.90;54.80
51215;DHT22;63849;47.546;19.254;2023-10-08T04:13:38;16.80;54.80
51215;DHT22;63849;47.546;19.254;2023-10-08T04:16:10;16.80;54.80
51215;DHT22;63849;47.546;19.254;2023-10-08T04:18:36;16.80;55.40
51215;DHT22;63849;47.546;19.254;2023-10-08T04:21:06;16.80;55.40
51215;DHT22;63849;47.546;19.254;2023-10-08T04:23:39;16.70;55.50
51215;DHT22;63849;47.546;19.254;2023-10-08T04:26:05;16.70;55.80
51215;DHT22;63849;47.546;19.254;2023-10-08T04:28:32;16.60;56.20
51215;DHT22;63849;47.546;19.254;2023-10-08T04:31:01;16.60;56.30
51215;DHT22;63849;47.546;19.254;2023-10-08T04:33:41;16.60;56.30
51215;DHT22;63849;47.546;19.254;2023-10-08T04:36:07;16.60;57.00
51215;DHT22;63849;47.546;19.254;2023-10-08T04:38:33;16.60;56.60
51215;DHT22;63849;47.546;19.254;2023-10-08T04:41:05;16.60;56.60
51215;DHT22;63849;47.546;19.254;2023-10-08T04:43:35;16.60;56.80
51215;DHT22;63849;47.546;19.254;2023-10-08T04:46:04;16.60;57.00
51215;DHT22;63849;47.546;19.254;2023-10-08T04:48:47;16.60;57.30
51215;DHT22;63849;47.546;19.254;2023-10-08T04:51:15;16.60;57.40
51215;DHT22;63849;47.546;19.254;2023-10-08T04:53:41;16.60;57.90
51215;DHT22;63849;47.546;19.254;2023-10-08T04:56:11;16.60;58.00
51215;DHT22;63849;47.546;19.254;2023-10-08T04:58:46;16.60;58.00
51215;DHT22;63849;47.546;19.254;2023-10-08T05:01:16;16.60;58.30
51215;DHT22;63849;47.546;19.254;2023-10-08T05:03:50;16.60;58.50
51215;DHT22;63849;47.546;19.254;2023-10-08T05:06:26;16.50;58.90
51215;DHT22;63849;47.546;19.254;2023-10-08T05:09:18;16.50;59.30
51215;DHT22;63849;47.546;19.254;2023-10-08T05:11:45;16.70;58.80
51215;DHT22;63849;47.546;19.254;2023-10-08T05:14:21;16.90;58.20
51215;DHT22;63849;47.546;19.254;2023-10-08T05:17:01;17.00;57.50
51215;DHT22;63849;47.546;19.254;2023-10-08T05:19:36;17.20;57.00
51215;DHT22;63849;47.546;19.254;2023-10-08T05:22:17;17.30;57.00
51215;DHT22;63849;47.546;19.254;2023-10-08T05:24:45;17.40;57.50
51215;DHT22;63849;47.546;19.254;2023-10-08T05:27:39;17.40;56.90
51215;DHT22;63849;47.546;19.254;2023-10-08T05:30:18;17.40;56.60
51215;DHT22;63849;47.546;19.254;2023-10-08T05:32:52;17.50;56.50
51215;DHT22;63849;47.546;19.254;2023-10-08T05:35:38;17.60;56.40
51215;DHT22;63849;47.546;19.254;2023-10-08T05:38:11;17.70;55.70
51215;DHT22;63849;47.546;19.254;2023-10-08T05:41:04;17.80;55.30
51215;DHT22;63849;47.546;19.254;2023-10-08T05:43:36;17.90;55.50
51215;DHT22;63849;47.546;19.254;2023-10-08T05:48:54;17.90;55.70
51215;DHT22;63849;47.546;19.254;2023-10-08T05:51:47;17.90;55.30
51215;DHT22;63849;47.546;19.254;2023-10-08T05:54:13;18.10;55.10
51215;DHT22;63849;47.546;19.254;2023-10-08T05:57:02;18.10;54.50
51215;DHT22;63849;47.546;19.254;2023-10-08T05:59:31;18.20;54.40
51215;DHT22;63849;47.546;19.254;2023-10-08T06:02:16;18.10;55.20
51215;DHT22;63849;47.546;19.254;2023-10-08T06:05:13;18.20;54.80
51215;DHT22;63849;47.546;19.254;2023-10-08T06:07:47;18.10;54.80
51215;DHT22;63849;47.546;19.254;2023-10-08T06:15:51;18.20;55.40
51215;DHT22;63849;47.546;19.254;2023-10-08T06:18:22;18.20;55.80
51215;DHT22;63849;47.546;19.254;2023-10-08T06:20:55;18.20;55.40
51215;DHT22;63849;47.546;19.254;2023-10-08T06:23:21;18.20;55.50
51215;DHT22;63849;47.546;19.254;2023-10-08T06:25:50;18.20;55.90
51215;DHT22;63849;47.546;19.254;2023-10-08T06:28:43;18.20;55.60
51215;DHT22;63849;47.546;19.254;2023-10-08T06:31:10;18.30;55.80
51215;DHT22;63849;47.546;19.254;2023-10-08T06:33:43;18.30;55.90
51215;DHT22;63849;47.546;19.254;2023-10-08T06:36:10;18.30;56.50
51215;DHT22;63849;47.546;19.254;2023-10-08T06:38:42;18.40;56.50
51215;DHT22;63849;47.546;19.254;2023-10-08T06:41:11;18.40;55.90
51215;DHT22;63849;47.546;19.254;2023-10-08T06:43:40;18.40;56.20
51215;DHT22;63849;47.546;19.254;2023-10-08T06:46:13;18.50;55.90
51215;DHT22;63849;47.546;19.254;2023-10-08T06:48:41;18.50;56.00
51215;DHT22;63849;47.546;19.254;2023-10-08T06:51:11;18.50;56.40
51215;DHT22;63849;47.546;19.254;2023-10-08T06:53:40;18.50;56.50
51215;DHT22;63849;47.546;19.254;2023-10-08T06:56:06;18.60;56.50
51215;DHT22;63849;47.546;19.254;2023-10-08T06:58:35;18.50;57.20
51215;DHT22;63849;47.546;19.254;2023-10-08T07:01:02;18.50;56.80
51215;DHT22;63849;47.546;19.254;2023-10-08T07:03:31;18.50;57.50
51215;DHT22;63849;47.546;19.254;2023-10-08T07:05:59;18.50;57.20
51215;DHT22;63849;47.546;19.254;2023-10-08T07:08:32;18.50;56.80
51215;DHT22;63849;47.546;19.254;2023-10-08T07:10:59;18.60;57.00
51215;DHT22;63849;47.546;19.254;2023-10-08T07:13:26;18.60;57.30
51215;DHT22;63849;47.546;19.254;2023-10-08T07:15:55;18.70;56.90
51215;DHT22;63849;47.546;19.254;2023-10-08T07:18:21;18.90;57.20
51215;DHT22;63849;47.546;19.254;2023-10-08T07:20:55;19.00;56.80
51215;DHT22;63849;47.546;19.254;2023-10-08T07:23:26;19.20;56.00
51215;DHT22;63849;47.546;19.254;2023-10-08T07:25:59;19.30;56.30
51215;DHT22;63849;47.546;19.254;2023-10-08T07:28:37;19.40;56.00
51215;DHT22;63849;47.546;19.254;2023-10-08T07:31:12;19.40;56.30
51215;DHT22;63849;47.546;19.254;2023-10-08T07:33:43;19.40;56.00
51215;DHT22;63849;47.546;19.254;2023-10-08T07:36:13;19.50;56.00
51215;DHT22;63849;47.546;19.254;2023-10-08T07:38:42;19.40;56.00
51215;DHT22;63849;47.546;19.254;2023-10-08T07:41:09;19.40;56.00
51215;DHT22;63849;47.546;19.254;2023-10-08T07:43:39;19.30;56.30
51215;DHT22;63849;47.546;19.254;2023-10-08T07:46:05;19.30;56.70
51215;DHT22;63849;47.546;19.254;2023-10-08T07:48:31;19.20;56.50
51215;DHT22;63849;47.546;19.254;2023-10-08T07:50:57;19.20;57.00
51215;DHT22;63849;47.546;19.254;2023-10-08T07:53:24;19.20;56.90
51215;DHT22;63849;47.546;19.254;2023-10-08T07:55:50;19.20;57.40
51215;DHT22;63849;47.546;19.254;2023-10-08T07:58:17;19.20;57.50
51215;DHT22;63849;47.546;19.254;2023-10-08T08:00:44;19.30;57.60
51215;DHT22;63849;47.546;19.254;2023-10-08T08:03:20;19.40;58.00
51215;DHT22;63849;47.546;19.254;2023-10-08T08:05:47;19.40;58.20
51215;DHT22;63849;47.546;19.254;2023-10-08T08:08:14;19.40;57.90
51215;DHT22;63849;47.546;19.254;2023-10-08T08:10:44;19.40;58.60
51215;DHT22;63849;47.546;19.254;2023-10-08T08:13:11;19.40;58.80
51215;DHT22;63849;47.546;19.254;2023-10-08T08:15:37;19.40;58.70
51215;DHT22;63849;47.546;19.254;2023-10-08T08:18:08;19.40;59.60
51215;DHT22;63849;47.546;19.254;2023-10-08T08:20:41;19.30;60.00
51215;DHT22;63849;47.546;19.254;2023-10-08T08:23:09;19.40;59.90
51215;DHT22;63849;47.546;19.254;2023-10-08T08:25:41;19.50;59.70
51215;DHT22;63849;47.546;19.254;2023-10-08T08:28:26;19.60;60.00
51215;DHT22;63849;47.546;19.254;2023-10-08T08:30:54;19.80;59.40
51215;DHT22;63849;47.546;19.254;2023-10-08T08:33:21;19.90;58.40
51215;DHT22;63849;47.546;19.254;2023-10-08T08:36:00;19.90;58.60
51215;DHT22;63849;47.546;19.254;2023-10-08T08:38:27;20.10;58.60
51215;DHT22;63849;47.546;19.254;2023-10-08T08:41:04;20.20;57.80
51215;DHT22;63849;47.546;19.254;2023-10-08T08:43:36;20.20;58.50
51215;DHT22;63849;47.546;19.254;2023-10-08T08:46:05;20.30;57.90
51215;DHT22;63849;47.546;19.254;2023-10-08T08:48:43;20.30;58.40
51215;DHT22;63849;47.546;19.254;2023-10-08T08:51:12;20.40;58.40
51215;DHT22;63849;47.546;19.254;2023-10-08T08:53:39;20.40;57.70
51215;DHT22;63849;47.546;19.254;2023-10-08T08:56:07;20.40;58.50
51215;DHT22;63849;47.546;19.254;2023-10-08T08:58:35;20.40;57.80
51215;DHT22;63849;47.546;19.254;2023-10-08T09:01:07;20.50;58.80
51215;DHT22;63849;47.546;19.254;2023-10-08T09:03:38;20.60;57.90
51215;DHT22;63849;47.546;19.254;2023-10-08T09:06:05;20.70;58.20
51215;DHT22;63849;47.546;19.254;2023-10-08T09:08:35;20.70;58.50
51215;DHT22;63849;47.546;19.254;2023-10-08T09:11:01;20.70;57.80
51215;DHT22;63849;47.546;19.254;2023-10-08T09:13:28;20.50;58.40
51215;DHT22;63849;47.546;19.254;2023-10-08T09:16:13;20.40;58.70
51215;DHT22;63849;47.546;19.254;2023-10-08T09:18:42;20.50;58.80
51215;DHT22;63849;47.546;19.254;2023-10-08T09:21:15;20.50;58.40
51215;DHT22;63849;47.546;19.254;2023-10-08T09:23:46;20.50;59.20
51215;DHT22;63849;47.546;19.254;2023-10-08T09:26:16;20.50;60.00
51215;DHT22;63849;47.546;19.254;2023-10-08T09:28:45;20.50;59.40
51215;DHT22;63849;47.546;19.254;2023-10-08T09:31:15;20.50;59.80
51215;DHT22;63849;47.546;19.254;2023-10-08T09:33:43;20.50;59.70
51215;DHT22;63849;47.546;19.254;2023-10-08T09:36:18;20.50;59.80
51215;DHT22;63849;47.546;19.254;2023-10-08T09:38:46;20.40;59.70
51215;DHT22;63849;47.546;19.254;2023-10-08T09:41:15;20.40;60.30
51215;DHT22;63849;47.546;19.254;2023-10-08T09:43:41;20.40;60.40
51215;DHT22;63849;47.546;19.254;2023-10-08T09:46:19;20.30;60.70
51215;DHT22;63849;47.546;19.254;2023-10-08T09:48:51;20.10;61.20
51215;DHT22;63849;47.546;19.254;2023-10-08T09:51:20;20.00;61.20
51215;DHT22;63849;47.546;19.254;2023-10-08T09:54:20;20.00;61.10
51215;DHT22;63849;47.546;19.254;2023-10-08T09:56:47;19.90;61.10
51215;DHT22;63849;47.546;19.254;2023-10-08T09:59:13;19.80;61.60
51215;DHT22;63849;47.546;19.254;2023-10-08T10:01:41;19.70;61.90
51215;DHT22;63849;47.546;19.254;2023-10-08T10:04:23;19.50;61.70
51215;DHT22;63849;47.546;19.254;2023-10-08T10:06:57;19.20;61.40
51215;DHT22;63849;47.546;19.254;2023-10-08T10:09:26;19.10;61.90
51215;DHT22;63849;47.546;19.254;2023-10-08T10:11:53;18.90;61.50
51215;DHT22;63849;47.546;19.254;2023-10-08T10:14:23;18.90;61.90
51215;DHT22;63849;47.546;19.254;2023-10-08T10:17:26;18.90;61.80
51215;DHT22;63849;47.546;19.254;2023-10-08T10:19:55;18.90;61.80
51215;DHT22;63849;47.546;19.254;2023-10-08T10:22:32;18.80;62.20
51215;DHT22;63849;47.546;19.254;2023-10-08T10:25:04;18.80;62.50
51215;DHT22;63849;47.546;19.254;2023-10-08T10:30:26;18.90;63.40
51215;DHT22;63849;47.546;19.254;2023-10-08T10:32:54;19.10;62.20
51215;DHT22;63849;47.546;19.254;2023-10-08T10:35:20;19.10;62.30
51215;DHT22;63849;47.546;19.254;2023-10-08T10:37:49;19.10;62.50
51215;DHT22;63849;47.546;19.254;2023-10-08T10:40:22;19.10;62.50
51215;DHT22;63849;47.546;19.254;2023-10-08T10:43:07;19.20;63.00
51215;DHT22;63849;47.546;19.254;2023-10-08T10:45:34;19.20;62.70
51215;DHT22;63849;47.546;19.254;2023-10-08T10:48:02;19.30;62.70
51215;DHT22;63849;47.546;19.254;2023-10-08T10:50:48;19.30;62.80
51215;DHT22;63849;47.546;19.254;2023-10-08T10:53:38;19.20;63.60
51215;DHT22;63849;47.546;19.254;2023-10-08T10:56:14;19.30;62.80
51215;DHT22;63849;47.546;19.254;2023-10-08T10:59:03;19.30;63.10
51215;DHT22;63849;47.546;19.254;2023-10-08T11:01:50;19.20;62.40
51215;DHT22;63849;47.546;19.254;2023-10-08T11:04:31;19.30;62.90
51215;DHT22;63849;47.546;19.254;2023-10-08T11:06:59;19.40;62.60
51215;DHT22;63849;47.546;19.254;2023-10-08T11:09:26;19.40;61.90
51215;DHT22;63849;47.546;19.254;2023-10-08T11:12:03;19.30;60.20
51215;DHT22;63849;47.546;19.254;2023-10-08T11:14:40;19.40;59.10
51215;DHT22;63849;47.546;19.254;2023-10-08T11:17:16;19.30;59.80
51215;DHT22;63849;47.546;19.254;2023-10-08T11:19:45;19.40;60.40
51215;DHT22;63849;47.546;19.254;2023-10-08T11:22:15;19.70;60.70
51215;DHT22;63849;47.546;19.254;2023-10-08T11:24:47;19.70;60.00
51215;DHT22;63849;47.546;19.254;2023-10-08T11:27:19;19.80;58.50
51215;DHT22;63849;47.546;19.254;2023-10-08T11:30:04;19.70;57.90
51215;DHT22;63849;47.546;19.254;2023-10-08T11:32:36;19.70;57.00
51215;DHT22;63849;47.546;19.254;2023-10-08T11:35:04;19.70;57.00
51215;DHT22;63849;47.546;19.254;2023-10-08T11:37:47;19.60;56.40
51215;DHT22;63849;47.546;19.254;2023-10-08T11:40:26;19.50;56.60
51215;DHT22;63849;47.546;19.254;2023-10-08T11:42:57;19.40;56.30
51215;DHT22;63849;47.546;19.254;2023-10-08T11:45:28;19.40;57.40
51215;DHT22;63849;47.546;19.254;2023-10-08T11:48:04;19.40;57.40
51215;DHT22;63849;47.546;19.254;2023-10-08T11:50:37;19.40;57.80
51215;DHT22;63849;47.546;19.254;2023-10-08T11:53:04;19.30;58.10
51215;DHT22;63849;47.546;19.254;2023-10-08T11:55:34;19.30;57.00
51215;DHT22;63849;47.546;19.254;2023-10-08T11:58:07;19.10;57.20
51215;DHT22;63849;47.546;19.254;2023-10-08T12:00:40;19.00;57.20
51215;DHT22;63849;47.546;19.254;2023-10-08T12:03:10;18.90;57.50
51215;DHT22;63849;47.546;19.254;2023-10-08T12:05:38;18.80;57.40
51215;DHT22;63849;47.546;19.254;2023-10-08T12:08:17;18.70;57.00
51215;DHT22;63849;47.546;19.254;2023-10-08T12:10:44;18.50;57.60
51215;DHT22;63849;47.546;19.254;2023-10-08T12:13:12;18.40;57.50
51215;DHT22;63849;47.546;19.254;2023-10-08T12:15:38;18.30;57.60
51215;DHT22;63849;47.546;19.254;2023-10-08T12:18:05;18.30;57.80
51215;DHT22;63849;47.546;19.254;2023-10-08T12:20:49;18.20;57.70
51215;DHT22;63849;47.546;19.254;2023-10-08T12:23:15;18.20;57.20
51215;DHT22;63849;47.546;19.254;2023-10-08T12:25:57;18.20;56.40
51215;DHT22;63849;47.546;19.254;2023-10-08T12:28:23;18.10;55.90
51215;DHT22;63849;47.546;19.254;2023-10-08T12:30:51;18.10;55.70
51215;DHT22;63849;47.546;19.254;2023-10-08T12:33:23;18.10;55.20
51215;DHT22;63849;47.546;19.254;2023-10-08T12:35:52;18.10;54.90
51215;DHT22;63849;47.546;19.254;2023-10-08T12:38:41;18.10;55.30
51215;DHT22;63849;47.546;19.254;2023-10-08T12:41:11;18.00;55.60
51215;DHT22;63849;47.546;19.254;2023-10-08T12:43:43;17.90;55.00
51215;DHT22;63849;47.546;19.254;2023-10-08T12:46:18;17.80;55.30
51215;DHT22;63849;47.546;19.254;2023-10-08T12:48:45;17.80;54.80
51215;DHT22;63849;47.546;19.254;2023-10-08T12:51:14;17.80;55.00
51215;DHT22;63849;47.546;19.254;2023-10-08T12:53:40;17.70;54.90
51215;DHT22;63849;47.546;19.254;2023-10-08T12:56:08;17.70;54.30
51215;DHT22;63849;47.546;19.254;2023-10-08T12:58:41;17.60;54.50
51215;DHT22;63849;47.546;19.254;2023-10-08T13:01:10;17.60;55.00
51215;DHT22;63849;47.546;19.254;2023-10-08T13:03:39;17.60;55.00
51215;DHT22;63849;47.546;19.254;2023-10-08T13:06:14;17.60;54.70
51215;DHT22;63849;47.546;19.254;2023-10-08T13:08:54;17.50;54.70
51215;DHT22;63849;47.546;19.254;2023-10-08T13:11:20;17.40;54.40
51215;DHT22;63849;47.546;19.254;2023-10-08T13:13:53;17.40;54.70
51215;DHT22;63849;47.546;19.254;2023-10-08T13:16:23;17.40;54.50
51215;DHT22;63849;47.546;19.254;2023-10-08T13:18:49;17.40;54.50
51215;DHT22;63849;47.546;19.254;2023-10-08T13:21:15;17.40;54.80
51215;DHT22;63849;47.546;19.254;2023-10-08T13:23:42;17.40;54.20
51215;DHT22;63849;47.546;19.254;2023-10-08T13:26:07;17.40;53.40
51215;DHT22;63849;47.546;19.254;2023-10-08T13:28:36;17.30;53.70
51215;DHT22;63849;47.546;19.254;2023-10-08T13:31:03;17.10;54.10
51215;DHT22;63849;47.546;19.254;2023-10-08T13:33:40;17.20;53.70
51215;DHT22;63849;47.546;19.254;2023-10-08T13:36:11;17.20;54.10
51215;DHT22;63849;47.546;19.254;2023-10-08T13:38:39;17.20;53.80
51215;DHT22;63849;47.546;19.254;2023-10-08T13:41:12;17.10;53.60
51215;DHT22;63849;47.546;19.254;2023-10-08T13:43:49;17.20;54.40
51215;DHT22;63849;47.546;19.254;2023-10-08T13:46:20;17.30;53.60
51215;DHT22;63849;47.546;19.254;2023-10-08T13:48:49;17.20;54.10
51215;DHT22;63849;47.546;19.254;2023-10-08T13:51:21;17.20;54.00
51215;DHT22;63849;47.546;19.254;2023-10-08T13:53:57;17.10;53.10
51215;DHT22;63849;47.546;19.254;2023-10-08T13:56:27;17.20;53.30
51215;DHT22;63849;47.546;19.254;2023-10-08T13:58:57;17.20;54.20
51215;DHT22;63849;47.546;19.254;2023-10-08T14:01:49;17.20;53.40
51215;DHT22;63849;47.546;19.254;2023-10-08T14:04:17;17.10;53.40
51215;DHT22;63849;47.546;19.254;2023-10-08T14:06:45;17.00;53.40
51215;DHT22;63849;47.546;19.254;2023-10-08T14:09:18;16.90;54.40
51215;DHT22;63849;47.546;19.254;2023-10-08T14:11:50;16.90;54.10
51215;DHT22;63849;47.546;19.254;2023-10-08T14:14:18;17.00;53.30
51215;DHT22;63849;47.546;19.254;2023-10-08T14:16:45;16.90;53.20
51215;DHT22;63849;47.546;19.254;2023-10-08T14:19:17;16.90;53.20
51215;DHT22;63849;47.546;19.254;2023-10-08T14:21:43;16.90;53.10
51215;DHT22;63849;47.546;19.254;2023-10-08T14:24:18;16.80;53.20
51215;DHT22;63849;47.546;19.254;2023-10-08T14:26:44;16.90;53.00
51215;DHT22;63849;47.546;19.254;2023-10-08T14:29:17;16.90;53.70
51215;DHT22;63849;47.546;19.254;2023-10-08T14:31:43;16.80;53.60
51215;DHT22;63849;47.546;19.254;2023-10-08T14:34:14;16.90;53.20
51215;DHT22;63849;47.546;19.254;2023-10-08T14:36:46;16.90;53.60
51215;DHT22;63849;47.546;19.254;2023-10-08T14:39:32;16.90;53.50
51215;DHT22;63849;47.546;19.254;2023-10-08T14:42:17;16.90;54.00
51215;DHT22;63849;47.546;19.254;2023-10-08T14:45:01;16.90;53.70
51215;DHT22;63849;47.546;19.254;2023-10-08T14:47:27;16.80;52.00
51215;DHT22;63849;47.546;19.254;2023-10-08T14:49:53;16.70;51.20
51215;DHT22;63849;47.546;19.254;2023-10-08T14:52:19;16.70;51.30
51215;DHT22;63849;47.546;19.254;2023-10-08T14:54:45;16.60;50.80
51215;DHT22;63849;47.546;19.254;2023-10-08T14:57:14;16.50;50.50
51215;DHT22;63849;47.546;19.254;2023-10-08T14:59:43;16.50;49.70
51215;DHT22;63849;47.546;19.254;2023-10-08T15:02:09;16.50;49.00
51215;DHT22;63849;47.546;19.254;2023-10-08T15:04:37;16.40;49.20
51215;DHT22;63849;47.546;19.254;2023-10-08T15:07:06;16.30;49.70
51215;DHT22;63849;47.546;19.254;2023-10-08T15:09:39;16.30;50.00
51215;DHT22;63849;47.546;19.254;2023-10-08T15:12:06;16.30;49.50
51215;DHT22;63849;47.546;19.254;2023-10-08T15:14:35;16.20;49.60
51215;DHT22;63849;47.546;19.254;2023-10-08T15:17:01;16.20;49.60
51215;DHT22;63849;47.546;19.254;2023-10-08T15:19:26;16.10;49.60
51215;DHT22;63849;47.546;19.254;2023-10-08T15:21:53;16.10;50.40
51215;DHT22;63849;47.546;19.254;2023-10-08T15:24:22;15.90;50.90
51215;DHT22;63849;47.546;19.254;2023-10-08T15:26:53;15.80;50.70
51215;DHT22;63849;47.546;19.254;2023-10-08T15:29:20;15.70;51.20
51215;DHT22;63849;47.546;19.254;2023-10-08T15:31:47;15.60;51.00
51215;DHT22;63849;47.546;19.254;2023-10-08T15:34:17;15.50;51.50
51215;DHT22;63849;47.546;19.254;2023-10-08T15:36:42;15.40;51.00
51215;DHT22;63849;47.546;19.254;2023-10-08T15:39:08;15.40;51.00
51215;DHT22;63849;47.546;19.254;2023-10-08T15:41:39;15.30;50.80
51215;DHT22;63849;47.546;19.254;2023-10-08T15:44:05;15.30;50.50
51215;DHT22;63849;47.546;19.254;2023-10-08T15:46:32;15.30;50.30
51215;DHT22;63849;47.546;19.254;2023-10-08T15:49:03;15.30;50.90
51215;DHT22;63849;47.546;19.254;2023-10-08T15:51:32;15.00;51.50
51215;DHT22;63849;47.546;19.254;2023-10-08T15:53:58;14.90;51.60
51215;DHT22;63849;47.546;19.254;2023-10-08T15:56:27;14.70;52.80